sensor_id;sensor_type;location;lat;lon;timestamp;P1;durP1;ratioP1;P2;durP2;ratioP2
44973;SDS011;60981;50.720;11.342;2023-06-22T11:13:38;7.55;;;5.78;;
44973;SDS011;60981;50.720;11.342;2023-06-22T11:14:56;9.07;;;5.60;;
44973;SDS011;60981;50.720;11.342;2023-06-22T11:16:29;6.93;;;5.03;;
44973;SDS011;60981;50.720;11.342;2023-06-22T11:17:32;6.55;;;5.50;;
44973;SDS011;60981;50.720;11.342;2023-06-22T11:18:39;7.45;;;5.45;;
44973;SDS011;60981;50.720;11.342;2023-06-22T11:19:45;8.27;;;5.65;;
44973;SDS011;60981;50.720;11.342;2023-06-22T11:20:52;8.38;;;5.55;;
44973;SDS011;60981;50.720;11.342;2023-06-22T11:22:15;7.60;;;5.68;;
44973;SDS011;60981;50.720;11.342;2023-06-22T11:23:35;8.45;;;5.85;;
44973;SDS011;60981;50.720;11.342;2023-06-22T11:24:40;8.52;;;5.10;;
44973;SDS011;60981;50.720;11.342;2023-06-22T11:27:38;8.82;;;5.80;;
44973;SDS011;60981;50.720;11.342;2023-06-22T11:38:02;6.63;;;5.90;;
44973;SDS011;60981;50.720;11.342;2023-06-22T11:39:20;8.77;;;5.78;;
44973;SDS011;60981;50.720;11.342;2023-06-22T11:40:46;8.57;;;5.60;;
44973;SDS011;60981;50.720;11.342;2023-06-22T11:42:23;7.10;;;5.13;;
44973;SDS011;60981;50.720;11.342;2023-06-22T11:43:57;7.60;;;5.38;;
44973;SDS011;60981;50.720;11.342;2023-06-22T11:45:31;6.43;;;5.47;;
44973;SDS011;60981;50.720;11.342;2023-06-22T11:46:54;7.43;;;5.57;;
44973;SDS011;60981;50.720;11.342;2023-06-22T11:50:45;8.00;;;5.45;;
44973;SDS011;60981;50.720;11.342;2023-06-22T11:51:50;8.45;;;5.78;;
44973;SDS011;60981;50.720;11.342;2023-06-22T11:53:00;7.80;;;5.65;;
44973;SDS011;60981;50.720;11.342;2023-06-22T11:54:23;7.45;;;5.15;;
44973;SDS011;60981;50.720;11.342;2023-06-22T11:55:33;7.45;;;5.50;;
44973;SDS011;60981;50.720;11.342;2023-06-22T12:34:00;6.97;;;5.70;;
44973;SDS011;60981;50.720;11.342;2023-06-22T12:35:05;7.00;;;5.65;;
44973;SDS011;60981;50.720;11.342;2023-06-22T12:36:14;10.32;;;6.53;;
44973;SDS011;60981;50.720;11.342;2023-06-22T12:37:22;7.37;;;5.73;;
44973;SDS011;60981;50.720;11.342;2023-06-22T12:38:30;7.03;;;5.28;;
44973;SDS011;60981;50.720;11.342;2023-06-22T12:39:45;6.07;;;4.90;;
44973;SDS011;60981;50.720;11.342;2023-06-22T12:40:51;9.30;;;6.43;;
44973;SDS011;60981;50.720;11.342;2023-06-22T12:42:00;6.50;;;5.05;;
44973;SDS011;60981;50.720;11.342;2023-06-22T12:43:08;7.60;;;5.30;;
44973;SDS011;60981;50.720;11.342;2023-06-22T12:45:29;5.90;;;4.90;;
44973;SDS011;60981;50.720;11.342;2023-06-22T12:46:47;7.63;;;5.20;;
44973;SDS011;60981;50.720;11.342;2023-06-22T12:48:00;6.50;;;5.03;;
44973;SDS011;60981;50.720;11.342;2023-06-22T12:49:14;6.85;;;5.07;;
44973;SDS011;60981;50.720;11.342;2023-06-22T12:50:44;7.35;;;5.90;;
44973;SDS011;60981;50.720;11.342;2023-06-22T12:52:26;7.40;;;5.85;;
44973;SDS011;60981;50.720;11.342;2023-06-22T12:53:34;8.80;;;5.40;;
44973;SDS011;60981;50.720;11.342;2023-06-22T13:58:40;8.43;;;5.22;;
44973;SDS011;60981;50.720;11.342;2023-06-22T13:59:43;7.38;;;4.95;;
44973;SDS011;60981;50.720;11.342;2023-06-22T14:00:51;7.70;;;4.82;;
44973;SDS011;60981;50.720;11.342;2023-06-22T14:01:57;6.40;;;4.85;;
44973;SDS011;60981;50.720;11.342;2023-06-22T14:03:05;8.02;;;5.50;;
44973;SDS011;60981;50.720;11.342;2023-06-22T14:04:07;7.32;;;5.22;;
44973;SDS011;60981;50.720;11.342;2023-06-22T14:05:29;6.80;;;4.70;;
44973;SDS011;60981;50.720;11.342;2023-06-22T14:06:32;7.55;;;5.43;;
44973;SDS011;60981;50.720;11.342;2023-06-22T14:07:35;6.32;;;5.00;;
44973;SDS011;60981;50.720;11.342;2023-06-22T14:08:38;7.03;;;4.78;;
44973;SDS011;60981;50.720;11.342;2023-06-22T14:09:42;6.82;;;4.80;;
44973;SDS011;60981;50.720;11.342;2023-06-22T14:10:46;7.00;;;4.90;;
44973;SDS011;60981;50.720;11.342;2023-06-22T14:12:07;6.82;;;4.95;;
44973;SDS011;60981;50.720;11.342;2023-06-22T14:13:18;6.40;;;5.18;;
44973;SDS011;60981;50.720;11.342;2023-06-22T14:14:38;6.60;;;5.40;;
44973;SDS011;60981;50.720;11.342;2023-06-22T14:15:41;7.40;;;5.47;;
44973;SDS011;60981;50.720;11.342;2023-06-22T14:16:48;7.25;;;5.20;;
44973;SDS011;60981;50.720;11.342;2023-06-22T14:18:11;7.22;;;5.15;;
44973;SDS011;60981;50.720;11.342;2023-06-22T14:19:30;7.90;;;5.03;;
44973;SDS011;60981;50.720;11.342;2023-06-22T14:20:36;6.82;;;5.20;;
44973;SDS011;60981;50.720;11.342;2023-06-22T14:21:41;8.20;;;5.20;;
44973;SDS011;60981;50.720;11.342;2023-06-22T14:22:44;7.50;;;5.03;;
44973;SDS011;60981;50.720;11.342;2023-06-22T14:24:15;7.05;;;4.90;;
44973;SDS011;60981;50.720;11.342;2023-06-22T14:25:22;7.47;;;4.82;;
44973;SDS011;60981;50.720;11.342;2023-06-22T14:26:25;6.82;;;5.20;;
44973;SDS011;60981;50.720;11.342;2023-06-22T14:27:27;6.53;;;4.60;;
44973;SDS011;60981;50.720;11.342;2023-06-22T14:28:37;7.50;;;4.80;;
44973;SDS011;60981;50.720;11.342;2023-06-22T14:29:45;8.30;;;5.05;;
44973;SDS011;60981;50.720;11.342;2023-06-22T14:30:48;6.47;;;5.05;;
44973;SDS011;60981;50.720;11.342;2023-06-22T14:31:51;6.68;;;4.82;;
44973;SDS011;60981;50.720;11.342;2023-06-22T14:32:53;7.32;;;5.18;;
44973;SDS011;60981;50.720;11.342;2023-06-22T14:33:58;8.88;;;5.35;;
44973;SDS011;60981;50.720;11.342;2023-06-22T14:35:03;9.07;;;5.50;;
44973;SDS011;60981;50.720;11.342;2023-06-22T14:36:13;7.70;;;5.00;;
44973;SDS011;60981;50.720;11.342;2023-06-22T14:37:17;7.85;;;4.95;;
44973;SDS011;60981;50.720;11.342;2023-06-22T14:38:34;8.52;;;5.13;;
44973;SDS011;60981;50.720;11.342;2023-06-22T14:39:39;6.80;;;4.93;;
44973;SDS011;60981;50.720;11.342;2023-06-22T14:40:45;10.23;;;5.43;;
44973;SDS011;60981;50.720;11.342;2023-06-22T14:42:08;6.90;;;4.88;;
44973;SDS011;60981;50.720;11.342;2023-06-22T14:43:19;7.40;;;5.13;;
44973;SDS011;60981;50.720;11.342;2023-06-22T14:44:22;7.10;;;5.15;;
44973;SDS011;60981;50.720;11.342;2023-06-22T14:45:24;6.30;;;4.68;;
44973;SDS011;60981;50.720;11.342;2023-06-22T14:46:26;6.97;;;5.00;;
44973;SDS011;60981;50.720;11.342;2023-06-22T14:47:29;6.10;;;4.80;;
44973;SDS011;60981;50.720;11.342;2023-06-22T14:48:31;7.75;;;4.85;;
44973;SDS011;60981;50.720;11.342;2023-06-22T14:49:33;6.38;;;4.55;;
44973;SDS011;60981;50.720;11.342;2023-06-22T14:50:36;7.00;;;5.00;;
44973;SDS011;60981;50.720;11.342;2023-06-22T14:51:38;8.13;;;5.30;;
44973;SDS011;60981;50.720;11.342;2023-06-22T14:52:39;7.30;;;5.25;;
44973;SDS011;60981;50.720;11.342;2023-06-22T14:53:42;7.28;;;4.78;;
44973;SDS011;60981;50.720;11.342;2023-06-22T14:55:26;6.57;;;4.57;;
44973;SDS011;60981;50.720;11.342;2023-06-22T14:56:33;7.43;;;5.00;;
44973;SDS011;60981;50.720;11.342;2023-06-22T14:57:59;7.40;;;5.15;;
44973;SDS011;60981;50.720;11.342;2023-06-22T14:59:08;7.40;;;5.18;;
44973;SDS011;60981;50.720;11.342;2023-06-22T15:00:13;7.63;;;4.70;;
44973;SDS011;60981;50.720;11.342;2023-06-22T15:01:18;6.65;;;4.57;;
44973;SDS011;60981;50.720;11.342;2023-06-22T15:02:20;8.93;;;5.20;;
44973;SDS011;60981;50.720;11.342;2023-06-22T15:03:22;5.93;;;4.70;;
44973;SDS011;60981;50.720;11.342;2023-06-22T15:04:29;8.10;;;5.13;;
44973;SDS011;60981;50.720;11.342;2023-06-22T15:05:36;6.80;;;4.85;;
44973;SDS011;60981;50.720;11.342;2023-06-22T15:06:38;7.22;;;5.18;;
44973;SDS011;60981;50.720;11.342;2023-06-22T15:07:41;6.93;;;4.88;;
44973;SDS011;60981;50.720;11.342;2023-06-22T15:08:43;8.18;;;4.60;;
44973;SDS011;60981;50.720;11.342;2023-06-22T15:09:45;8.65;;;4.90;;
44973;SDS011;60981;50.720;11.342;2023-06-22T15:10:48;7.28;;;4.45;;
44973;SDS011;60981;50.720;11.342;2023-06-22T15:11:50;7.40;;;4.28;;
44973;SDS011;60981;50.720;11.342;2023-06-22T15:12:52;7.65;;;4.90;;
44973;SDS011;60981;50.720;11.342;2023-06-22T15:13:57;6.82;;;4.53;;
44973;SDS011;60981;50.720;11.342;2023-06-22T15:15:00;6.72;;;4.82;;
44973;SDS011;60981;50.720;11.342;2023-06-22T15:16:02;7.10;;;4.53;;
44973;SDS011;60981;50.720;11.342;2023-06-22T15:17:07;8.23;;;5.00;;
44973;SDS011;60981;50.720;11.342;2023-06-22T15:18:10;8.25;;;4.80;;
44973;SDS011;60981;50.720;11.342;2023-06-22T15:19:12;8.23;;;5.00;;
44973;SDS011;60981;50.720;11.342;2023-06-22T15:20:14;8.02;;;4.82;;
44973;SDS011;60981;50.720;11.342;2023-06-22T15:21:16;7.55;;;5.00;;
44973;SDS011;60981;50.720;11.342;2023-06-22T15:22:18;8.13;;;5.28;;
44973;SDS011;60981;50.720;11.342;2023-06-22T15:23:21;7.03;;;4.90;;
44973;SDS011;60981;50.720;11.342;2023-06-22T15:24:23;6.57;;;4.70;;
44973;SDS011;60981;50.720;11.342;2023-06-22T15:25:25;7.55;;;5.53;;
44973;SDS011;60981;50.720;11.342;2023-06-22T15:26:27;7.55;;;4.90;;
44973;SDS011;60981;50.720;11.342;2023-06-22T15:27:29;6.80;;;5.10;;
44973;SDS011;60981;50.720;11.342;2023-06-22T15:28:31;6.43;;;4.60;;
44973;SDS011;60981;50.720;11.342;2023-06-22T15:29:33;7.75;;;5.10;;
44973;SDS011;60981;50.720;11.342;2023-06-22T15:30:35;7.28;;;4.88;;
44973;SDS011;60981;50.720;11.342;2023-06-22T15:31:37;7.93;;;4.90;;
44973;SDS011;60981;50.720;11.342;2023-06-22T15:32:42;7.88;;;4.85;;
44973;SDS011;60981;50.720;11.342;2023-06-22T15:33:46;6.93;;;5.10;;
44973;SDS011;60981;50.720;11.342;2023-06-22T15:34:48;6.53;;;5.07;;
44973;SDS011;60981;50.720;11.342;2023-06-22T15:35:51;6.60;;;4.85;;
44973;SDS011;60981;50.720;11.342;2023-06-22T15:36:54;6.93;;;4.80;;
44973;SDS011;60981;50.720;11.342;2023-06-22T15:37:56;7.32;;;5.57;;
44973;SDS011;60981;50.720;11.342;2023-06-22T15:38:58;8.90;;;4.53;;
44973;SDS011;60981;50.720;11.342;2023-06-22T15:40:00;7.35;;;4.50;;
44973;SDS011;60981;50.720;11.342;2023-06-22T15:41:01;7.68;;;5.03;;
44973;SDS011;60981;50.720;11.342;2023-06-22T15:42:04;8.75;;;4.82;;
44973;SDS011;60981;50.720;11.342;2023-06-22T15:43:09;6.78;;;4.50;;
44973;SDS011;60981;50.720;11.342;2023-06-22T15:44:12;8.02;;;4.63;;
44973;SDS011;60981;50.720;11.342;2023-06-22T15:45:14;8.27;;;5.18;;
44973;SDS011;60981;50.720;11.342;2023-06-22T15:46:17;7.60;;;5.30;;
44973;SDS011;60981;50.720;11.342;2023-06-22T15:47:19;7.20;;;5.07;;
44973;SDS011;60981;50.720;11.342;2023-06-22T15:48:24;6.95;;;4.80;;
44973;SDS011;60981;50.720;11.342;2023-06-22T15:49:26;6.82;;;4.65;;
44973;SDS011;60981;50.720;11.342;2023-06-22T15:50:29;7.03;;;5.07;;
44973;SDS011;60981;50.720;11.342;2023-06-22T15:51:31;7.55;;;4.65;;
44973;SDS011;60981;50.720;11.342;2023-06-22T15:52:33;7.28;;;4.95;;
44973;SDS011;60981;50.720;11.342;2023-06-22T15:53:35;7.75;;;5.07;;
44973;SDS011;60981;50.720;11.342;2023-06-22T15:54:38;8.18;;;5.25;;
44973;SDS011;60981;50.720;11.342;2023-06-22T15:55:40;7.38;;;4.88;;
44973;SDS011;60981;50.720;11.342;2023-06-22T15:56:41;7.05;;;5.30;;
44973;SDS011;60981;50.720;11.342;2023-06-22T15:57:44;9.63;;;5.30;;
44973;SDS011;60981;50.720;11.342;2023-06-22T15:58:48;7.50;;;4.72;;
44973;SDS011;60981;50.720;11.342;2023-06-22T15:59:50;6.32;;;4.75;;
44973;SDS011;60981;50.720;11.342;2023-06-22T16:00:52;7.60;;;4.82;;
44973;SDS011;60981;50.720;11.342;2023-06-22T16:01:55;7.05;;;4.80;;
44973;SDS011;60981;50.720;11.342;2023-06-22T16:02:58;10.30;;;5.90;;
44973;SDS011;60981;50.720;11.342;2023-06-22T16:04:00;8.68;;;5.38;;
44973;SDS011;60981;50.720;11.342;2023-06-22T16:05:04;9.13;;;5.68;;
44973;SDS011;60981;50.720;11.342;2023-06-22T16:06:07;8.20;;;5.35;;
44973;SDS011;60981;50.720;11.342;2023-06-22T16:07:09;7.50;;;5.30;;
44973;SDS011;60981;50.720;11.342;2023-06-22T16:08:12;7.70;;;5.25;;
44973;SDS011;60981;50.720;11.342;2023-06-22T16:09:14;6.25;;;4.93;;
44973;SDS011;60981;50.720;11.342;2023-06-22T16:10:16;8.32;;;4.95;;
44973;SDS011;60981;50.720;11.342;2023-06-22T16:11:19;7.22;;;5.20;;
44973;SDS011;60981;50.720;11.342;2023-06-22T16:12:21;8.70;;;5.03;;
44973;SDS011;60981;50.720;11.342;2023-06-22T16:13:23;8.23;;;5.30;;
44973;SDS011;60981;50.720;11.342;2023-06-22T16:14:25;7.60;;;5.13;;
44973;SDS011;60981;50.720;11.342;2023-06-22T16:15:27;8.27;;;5.35;;
44973;SDS011;60981;50.720;11.342;2023-06-22T16:16:29;8.25;;;6.03;;
44973;SDS011;60981;50.720;11.342;2023-06-22T16:17:32;7.13;;;5.15;;
44973;SDS011;60981;50.720;11.342;2023-06-22T16:18:39;7.82;;;5.40;;
44973;SDS011;60981;50.720;11.342;2023-06-22T16:19:46;9.57;;;5.85;;
44973;SDS011;60981;50.720;11.342;2023-06-22T16:20:48;9.68;;;5.80;;
44973;SDS011;60981;50.720;11.342;2023-06-22T16:21:50;7.38;;;5.80;;
44973;SDS011;60981;50.720;11.342;2023-06-22T16:22:52;7.25;;;5.47;;
44973;SDS011;60981;50.720;11.342;2023-06-22T16:23:54;8.80;;;5.40;;
44973;SDS011;60981;50.720;11.342;2023-06-22T16:24:55;10.55;;;5.07;;
44973;SDS011;60981;50.720;11.342;2023-06-22T16:25:59;7.75;;;4.88;;
44973;SDS011;60981;50.720;11.342;2023-06-22T16:27:03;6.63;;;5.07;;
44973;SDS011;60981;50.720;11.342;2023-06-22T16:28:05;7.82;;;5.20;;
44973;SDS011;60981;50.720;11.342;2023-06-22T16:29:08;9.15;;;5.75;;
44973;SDS011;60981;50.720;11.342;2023-06-22T16:30:10;6.82;;;5.28;;
44973;SDS011;60981;50.720;11.342;2023-06-22T16:31:16;7.55;;;5.25;;
44973;SDS011;60981;50.720;11.342;2023-06-22T16:32:18;8.85;;;5.70;;
44973;SDS011;60981;50.720;11.342;2023-06-22T16:33:20;8.75;;;5.47;;
44973;SDS011;60981;50.720;11.342;2023-06-22T16:34:23;8.65;;;5.47;;
44973;SDS011;60981;50.720;11.342;2023-06-22T16:35:25;8.10;;;5.07;;
44973;SDS011;60981;50.720;11.342;2023-06-22T16:36:27;7.68;;;5.43;;
44973;SDS011;60981;50.720;11.342;2023-06-22T16:37:29;9.27;;;5.68;;
44973;SDS011;60981;50.720;11.342;2023-06-22T16:38:32;9.48;;;5.50;;
44973;SDS011;60981;50.720;11.342;2023-06-22T16:39:35;8.57;;;5.10;;
44973;SDS011;60981;50.720;11.342;2023-06-22T16:40:36;7.13;;;4.68;;
44973;SDS011;60981;50.720;11.342;2023-06-22T16:41:39;8.00;;;4.80;;
44973;SDS011;60981;50.720;11.342;2023-06-22T16:42:40;8.48;;;5.22;;
44973;SDS011;60981;50.720;11.342;2023-06-22T16:43:46;8.95;;;5.05;;
44973;SDS011;60981;50.720;11.342;2023-06-22T16:44:48;8.45;;;5.45;;
44973;SDS011;60981;50.720;11.342;2023-06-22T16:45:50;7.85;;;5.40;;
44973;SDS011;60981;50.720;11.342;2023-06-22T16:46:52;6.80;;;5.35;;
44973;SDS011;60981;50.720;11.342;2023-06-22T16:47:54;6.88;;;5.40;;
44973;SDS011;60981;50.720;11.342;2023-06-22T16:48:56;8.32;;;5.65;;
44973;SDS011;60981;50.720;11.342;2023-06-22T16:49:58;7.70;;;5.40;;
44973;SDS011;60981;50.720;11.342;2023-06-22T16:50:59;8.13;;;5.90;;
44973;SDS011;60981;50.720;11.342;2023-06-22T16:52:01;7.53;;;5.60;;
44973;SDS011;60981;50.720;11.342;2023-06-22T16:53:04;7.45;;;5.30;;
44973;SDS011;60981;50.720;11.342;2023-06-22T16:54:06;8.05;;;5.32;;
44973;SDS011;60981;50.720;11.342;2023-06-22T16:55:09;10.43;;;5.43;;
44973;SDS011;60981;50.720;11.342;2023-06-22T16:56:12;8.68;;;5.63;;
44973;SDS011;60981;50.720;11.342;2023-06-22T16:57:14;7.30;;;5.75;;
44973;SDS011;60981;50.720;11.342;2023-06-22T16:58:17;7.22;;;5.30;;
44973;SDS011;60981;50.720;11.342;2023-06-22T16:59:23;8.20;;;5.72;;
44973;SDS011;60981;50.720;11.342;2023-06-22T17:00:25;6.97;;;5.18;;
44973;SDS011;60981;50.720;11.342;2023-06-22T17:01:27;8.23;;;5.43;;
44973;SDS011;60981;50.720;11.342;2023-06-22T17:02:31;8.52;;;5.70;;
44973;SDS011;60981;50.720;11.342;2023-06-22T17:03:35;8.32;;;5.22;;
44973;SDS011;60981;50.720;11.342;2023-06-22T17:04:54;7.87;;;5.83;;
44973;SDS011;60981;50.720;11.342;2023-06-22T17:05:57;7.82;;;5.38;;
44973;SDS011;60981;50.720;11.342;2023-06-22T17:07:19;8.15;;;5.70;;
44973;SDS011;60981;50.720;11.342;2023-06-22T17:08:31;8.23;;;5.80;;
44973;SDS011;60981;50.720;11.342;2023-06-22T17:09:37;8.63;;;5.80;;
44973;SDS011;60981;50.720;11.342;2023-06-22T17:10:43;8.40;;;5.70;;
44973;SDS011;60981;50.720;11.342;2023-06-22T17:11:46;6.47;;;5.53;;
44973;SDS011;60981;50.720;11.342;2023-06-22T17:12:48;7.83;;;5.27;;
44973;SDS011;60981;50.720;11.342;2023-06-22T17:13:53;7.47;;;5.25;;
44973;SDS011;60981;50.720;11.342;2023-06-22T17:14:56;7.78;;;5.45;;
44973;SDS011;60981;50.720;11.342;2023-06-22T17:15:59;8.90;;;5.30;;
44973;SDS011;60981;50.720;11.342;2023-06-22T17:17:02;9.45;;;5.60;;
44973;SDS011;60981;50.720;11.342;2023-06-22T17:18:05;8.27;;;5.38;;
44973;SDS011;60981;50.720;11.342;2023-06-22T17:19:09;8.30;;;6.20;;
44973;SDS011;60981;50.720;11.342;2023-06-22T17:20:11;13.20;;;5.87;;
44973;SDS011;60981;50.720;11.342;2023-06-22T17:21:13;8.75;;;6.60;;
44973;SDS011;60981;50.720;11.342;2023-06-22T17:22:22;7.60;;;6.13;;
44973;SDS011;60981;50.720;11.342;2023-06-22T17:23:24;7.93;;;5.93;;
44973;SDS011;60981;50.720;11.342;2023-06-22T17:24:26;8.70;;;7.00;;
44973;SDS011;60981;50.720;11.342;2023-06-22T17:25:28;8.25;;;6.30;;
44973;SDS011;60981;50.720;11.342;2023-06-22T17:26:34;7.28;;;5.85;;
44973;SDS011;60981;50.720;11.342;2023-06-22T17:27:35;9.05;;;6.18;;
44973;SDS011;60981;50.720;11.342;2023-06-22T17:28:46;9.17;;;5.90;;
44973;SDS011;60981;50.720;11.342;2023-06-22T17:29:51;8.88;;;5.88;;
44973;SDS011;60981;50.720;11.342;2023-06-22T17:31:08;6.50;;;5.55;;
44973;SDS011;60981;50.720;11.342;2023-06-22T17:32:14;9.15;;;6.15;;
44973;SDS011;60981;50.720;11.342;2023-06-22T17:33:16;8.07;;;5.82;;
44973;SDS011;60981;50.720;11.342;2023-06-22T17:34:20;8.73;;;6.20;;
44973;SDS011;60981;50.720;11.342;2023-06-22T17:35:25;7.50;;;5.38;;
44973;SDS011;60981;50.720;11.342;2023-06-22T17:36:27;7.53;;;5.82;;
44973;SDS011;60981;50.720;11.342;2023-06-22T17:37:32;8.98;;;6.32;;
44973;SDS011;60981;50.720;11.342;2023-06-22T17:38:36;8.63;;;7.63;;
44973;SDS011;60981;50.720;11.342;2023-06-22T17:39:38;11.82;;;6.70;;
44973;SDS011;60981;50.720;11.342;2023-06-22T17:40:40;9.25;;;6.22;;
44973;SDS011;60981;50.720;11.342;2023-06-22T17:41:43;7.85;;;6.32;;
44973;SDS011;60981;50.720;11.342;2023-06-22T17:42:47;9.73;;;6.65;;
44973;SDS011;60981;50.720;11.342;2023-06-22T17:43:49;10.55;;;6.97;;
44973;SDS011;60981;50.720;11.342;2023-06-22T17:44:51;10.93;;;7.20;;
44973;SDS011;60981;50.720;11.342;2023-06-22T17:45:53;12.00;;;10.80;;
44973;SDS011;60981;50.720;11.342;2023-06-22T17:46:59;9.93;;;6.97;;
44973;SDS011;60981;50.720;11.342;2023-06-22T17:48:01;8.70;;;7.53;;
44973;SDS011;60981;50.720;11.342;2023-06-22T17:49:08;9.73;;;6.82;;
44973;SDS011;60981;50.720;11.342;2023-06-22T17:50:11;9.88;;;7.45;;
44973;SDS011;60981;50.720;11.342;2023-06-22T17:51:13;10.60;;;6.97;;
44973;SDS011;60981;50.720;11.342;2023-06-22T17:52:16;9.48;;;7.05;;
44973;SDS011;60981;50.720;11.342;2023-06-22T17:53:20;10.60;;;7.25;;
44973;SDS011;60981;50.720;11.342;2023-06-22T17:54:31;9.02;;;6.50;;
44973;SDS011;60981;50.720;11.342;2023-06-22T17:55:36;9.43;;;6.78;;
44973;SDS011;60981;50.720;11.342;2023-06-22T17:56:38;8.80;;;5.93;;
44973;SDS011;60981;50.720;11.342;2023-06-22T17:57:40;8.57;;;5.75;;
44973;SDS011;60981;50.720;11.342;2023-06-22T17:58:50;8.13;;;6.30;;
44973;SDS011;60981;50.720;11.342;2023-06-22T17:59:53;10.60;;;6.60;;
44973;SDS011;60981;50.720;11.342;2023-06-22T18:00:54;8.55;;;5.95;;
44973;SDS011;60981;50.720;11.342;2023-06-22T18:01:56;10.18;;;8.63;;
44973;SDS011;60981;50.720;11.342;2023-06-22T18:02:58;16.90;;;10.55;;
44973;SDS011;60981;50.720;11.342;2023-06-22T18:04:04;17.88;;;10.48;;
44973;SDS011;60981;50.720;11.342;2023-06-22T18:05:09;15.57;;;9.77;;
44973;SDS011;60981;50.720;11.342;2023-06-22T18:06:12;10.30;;;6.82;;
44973;SDS011;60981;50.720;11.342;2023-06-22T18:07:14;8.95;;;6.80;;
44973;SDS011;60981;50.720;11.342;2023-06-22T18:08:17;10.40;;;6.30;;
44973;SDS011;60981;50.720;11.342;2023-06-22T18:09:26;8.95;;;6.30;;
44973;SDS011;60981;50.720;11.342;2023-06-22T18:10:31;10.00;;;6.78;;
44973;SDS011;60981;50.720;11.342;2023-06-22T18:11:37;9.82;;;6.30;;
44973;SDS011;60981;50.720;11.342;2023-06-22T18:12:58;11.02;;;6.95;;
44973;SDS011;60981;50.720;11.342;2023-06-22T18:14:02;10.20;;;6.90;;
44973;SDS011;60981;50.720;11.342;2023-06-22T18:15:05;8.13;;;6.70;;
44973;SDS011;60981;50.720;11.342;2023-06-22T18:16:08;8.68;;;6.15;;
44973;SDS011;60981;50.720;11.342;2023-06-22T18:17:11;8.88;;;6.75;;
44973;SDS011;60981;50.720;11.342;2023-06-22T18:18:13;10.73;;;7.10;;
44973;SDS011;60981;50.720;11.342;2023-06-22T18:19:17;9.73;;;6.45;;
44973;SDS011;60981;50.720;11.342;2023-06-22T18:20:20;9.93;;;7.43;;
44973;SDS011;60981;50.720;11.342;2023-06-22T18:21:22;9.60;;;6.55;;
44973;SDS011;60981;50.720;11.342;2023-06-22T18:22:24;9.98;;;6.47;;
44973;SDS011;60981;50.720;11.342;2023-06-22T18:23:27;9.38;;;6.38;;
44973;SDS011;60981;50.720;11.342;2023-06-22T18:24:36;12.35;;;8.40;;
44973;SDS011;60981;50.720;11.342;2023-06-22T18:25:41;9.93;;;6.95;;
44973;SDS011;60981;50.720;11.342;2023-06-22T18:26:46;8.55;;;6.65;;
44973;SDS011;60981;50.720;11.342;2023-06-22T18:27:48;9.02;;;6.65;;
44973;SDS011;60981;50.720;11.342;2023-06-22T18:28:50;9.45;;;7.10;;
44973;SDS011;60981;50.720;11.342;2023-06-22T18:29:54;10.00;;;7.00;;
44973;SDS011;60981;50.720;11.342;2023-06-22T18:30:57;9.27;;;6.43;;
44973;SDS011;60981;50.720;11.342;2023-06-22T18:31:59;10.52;;;7.18;;
44973;SDS011;60981;50.720;11.342;2023-06-22T18:33:02;8.93;;;6.22;;
44973;SDS011;60981;50.720;11.342;2023-06-22T18:34:06;8.98;;;6.53;;
44973;SDS011;60981;50.720;11.342;2023-06-22T18:35:11;8.73;;;6.97;;
44973;SDS011;60981;50.720;11.342;2023-06-22T18:36:14;9.48;;;6.30;;
44973;SDS011;60981;50.720;11.342;2023-06-22T18:37:18;9.20;;;6.72;;
44973;SDS011;60981;50.720;11.342;2023-06-22T18:38:23;10.23;;;6.30;;
44973;SDS011;60981;50.720;11.342;2023-06-22T18:39:26;9.07;;;6.93;;
44973;SDS011;60981;50.720;11.342;2023-06-22T18:40:31;9.10;;;7.05;;
44973;SDS011;60981;50.720;11.342;2023-06-22T18:41:38;8.15;;;6.68;;
44973;SDS011;60981;50.720;11.342;2023-06-22T18:42:47;8.43;;;6.32;;
44973;SDS011;60981;50.720;11.342;2023-06-22T18:43:52;10.27;;;7.10;;
44973;SDS011;60981;50.720;11.342;2023-06-22T18:44:55;10.63;;;8.18;;
44973;SDS011;60981;50.720;11.342;2023-06-22T18:46:04;10.50;;;7.10;;
44973;SDS011;60981;50.720;11.342;2023-06-22T18:47:33;9.13;;;7.03;;
44973;SDS011;60981;50.720;11.342;2023-06-22T18:48:37;11.68;;;7.40;;
44973;SDS011;60981;50.720;11.342;2023-06-22T18:50:44;9.30;;;7.20;;
44973;SDS011;60981;50.720;11.342;2023-06-22T18:53:03;9.02;;;7.50;;
44973;SDS011;60981;50.720;11.342;2023-06-22T18:54:06;9.75;;;6.90;;
44973;SDS011;60981;50.720;11.342;2023-06-22T18:55:11;9.63;;;7.45;;
44973;SDS011;60981;50.720;11.342;2023-06-22T18:56:14;9.60;;;7.50;;
44973;SDS011;60981;50.720;11.342;2023-06-22T18:57:17;10.80;;;7.80;;
44973;SDS011;60981;50.720;11.342;2023-06-22T18:58:26;9.50;;;7.20;;
44973;SDS011;60981;50.720;11.342;2023-06-22T19:01:15;10.65;;;7.85;;
44973;SDS011;60981;50.720;11.342;2023-06-22T19:04:15;9.90;;;8.20;;
44973;SDS011;60981;50.720;11.342;2023-06-22T19:08:16;9.55;;;8.10;;
44973;SDS011;60981;50.720;11.342;2023-06-22T19:09:18;12.48;;;8.48;;
44973;SDS011;60981;50.720;11.342;2023-06-22T19:10:59;10.73;;;7.88;;
44973;SDS011;60981;50.720;11.342;2023-06-22T19:13:44;9.55;;;7.43;;
44973;SDS011;60981;50.720;11.342;2023-06-22T19:15:30;9.30;;;7.70;;
44973;SDS011;60981;50.720;11.342;2023-06-22T19:16:36;10.52;;;7.53;;
44973;SDS011;60981;50.720;11.342;2023-06-22T19:17:43;9.30;;;7.90;;
44973;SDS011;60981;50.720;11.342;2023-06-22T19:19:11;9.60;;;8.25;;
44973;SDS011;60981;50.720;11.342;2023-06-22T19:20:25;14.57;;;10.15;;
44973;SDS011;60981;50.720;11.342;2023-06-22T19:21:37;18.52;;;10.38;;
44973;SDS011;60981;50.720;11.342;2023-06-22T19:22:46;12.45;;;9.63;;
44973;SDS011;60981;50.720;11.342;2023-06-22T19:23:54;13.13;;;9.77;;
44973;SDS011;60981;50.720;11.342;2023-06-22T19:24:58;13.05;;;8.73;;
44973;SDS011;60981;50.720;11.342;2023-06-22T19:26:02;13.52;;;9.45;;
44973;SDS011;60981;50.720;11.342;2023-06-22T19:27:08;12.65;;;10.75;;
44973;SDS011;60981;50.720;11.342;2023-06-22T19:28:10;11.95;;;9.48;;
44973;SDS011;60981;50.720;11.342;2023-06-22T19:29:15;9.95;;;8.73;;
44973;SDS011;60981;50.720;11.342;2023-06-22T19:30:20;12.07;;;9.05;;
44973;SDS011;60981;50.720;11.342;2023-06-22T19:31:25;11.15;;;8.95;;
44973;SDS011;60981;50.720;11.342;2023-06-22T19:32:29;11.60;;;9.15;;
44973;SDS011;60981;50.720;11.342;2023-06-22T19:33:31;12.20;;;8.65;;
44973;SDS011;60981;50.720;11.342;2023-06-22T19:34:34;10.70;;;9.07;;
44973;SDS011;60981;50.720;11.342;2023-06-22T19:35:36;9.88;;;8.48;;
44973;SDS011;60981;50.720;11.342;2023-06-22T19:36:39;12.85;;;8.40;;
44973;SDS011;60981;50.720;11.342;2023-06-22T19:37:41;10.00;;;8.00;;
44973;SDS011;60981;50.720;11.342;2023-06-22T19:38:44;10.00;;;8.73;;
44973;SDS011;60981;50.720;11.342;2023-06-22T19:39:45;10.15;;;8.63;;
44973;SDS011;60981;50.720;11.342;2023-06-22T19:40:48;11.85;;;9.10;;
44973;SDS011;60981;50.720;11.342;2023-06-22T19:41:50;11.90;;;9.25;;
44973;SDS011;60981;50.720;11.342;2023-06-22T19:42:55;14.65;;;9.50;;
44973;SDS011;60981;50.720;11.342;2023-06-22T19:43:57;11.17;;;8.13;;
44973;SDS011;60981;50.720;11.342;2023-06-22T19:45:00;10.93;;;8.90;;
44973;SDS011;60981;50.720;11.342;2023-06-22T19:46:30;9.68;;;8.63;;
44973;SDS011;60981;50.720;11.342;2023-06-22T19:47:51;13.52;;;9.40;;
44973;SDS011;60981;50.720;11.342;2023-06-22T19:49:15;11.30;;;8.63;;
44973;SDS011;60981;50.720;11.342;2023-06-22T19:50:17;12.05;;;9.38;;
44973;SDS011;60981;50.720;11.342;2023-06-22T19:51:33;10.75;;;9.35;;